Time;durP1;ratioP1;P1;durP2;ratioP2;P2;SDS_P1;SDS_P2;PMS_P1;PMS_P2;Temp;Humidity;BMP_temperature;BMP_pressure;BME280_temperature;BME280_humidity;BME280_pressure;Samples;Min_cycle;Max_cycle;Signal;HPM_P1;HPM_P2
2021/07/03 00:01:21;;;;;;;19.70;11.20;;;17.80;99.90;;;;;;5050917;28;20466;-82
2021/07/03 00:03:48;;;;;;;12.83;10.97;;;17.70;99.90;;;;;;5043149;28;20628;-84
2021/07/03 00:06:15;;;;;;;16.20;10.70;;;17.70;99.90;;;;;;5047814;28;20839;-82
2021/07/03 00:08:42;;;;;;;12.40;10.43;;;17.60;99.90;;;;;;5048337;28;20589;-85
2021/07/03 00:11:10;;;;;;;11.70;10.47;;;17.60;99.90;;;;;;5046162;28;20459;-82
2021/07/03 00:13:38;;;;;;;14.13;10.13;;;17.60;99.90;;;;;;5047979;28;20461;-84
2021/07/03 00:16:06;;;;;;;16.23;10.67;;;17.50;99.90;;;;;;5044590;28;20992;-82
2021/07/03 00:18:33;;;;;;;13.37;10.60;;;17.50;99.90;;;;;;5046570;28;21225;-85
2021/07/03 00:21:00;;;;;;;17.17;11.60;;;17.50;99.90;;;;;;5047442;28;20464;-82
2021/07/03 00:23:27;;;;;;;16.07;12.97;;;17.50;99.90;;;;;;5047105;28;20466;-86
2021/07/03 00:25:54;;;;;;;19.47;12.33;;;17.50;99.90;;;;;;5049497;28;20513;-83
2021/07/03 00:28:22;;;;;;;15.13;11.70;;;17.40;99.90;;;;;;5046055;28;20982;-82
2021/07/03 00:30:49;;;;;;;15.57;12.07;;;17.40;99.90;;;;;;5043999;28;20461;-82
2021/07/03 00:33:16;;;;;;;14.13;12.43;;;17.40;99.90;;;;;;5046655;28;20490;-82
2021/07/03 00:35:44;;;;;;;17.43;10.90;;;17.40;99.90;;;;;;5044880;28;20462;-85
2021/07/03 00:38:11;;;;;;;18.77;10.53;;;17.30;99.90;;;;;;5047955;28;20958;-82
2021/07/03 00:40:38;;;;;;;13.40;10.63;;;17.30;99.90;;;;;;5046778;28;20478;-82
2021/07/03 00:43:05;;;;;;;11.47;9.60;;;17.30;99.90;;;;;;5044235;28;20460;-85
2021/07/03 00:45:33;;;;;;;12.90;10.90;;;17.30;99.90;;;;;;5046739;28;20508;-83
2021/07/03 00:48:00;;;;;;;12.20;10.30;;;17.30;99.90;;;;;;5047516;28;21030;-82
2021/07/03 00:50:27;;;;;;;12.97;10.40;;;17.20;99.90;;;;;;5045794;28;20547;-82
2021/07/03 00:52:54;;;;;;;11.70;10.50;;;17.20;99.90;;;;;;5045641;28;20488;-82
2021/07/03 00:55:21;;;;;;;21.13;11.30;;;17.20;99.90;;;;;;5048546;28;20489;-83
2021/07/03 00:57:48;;;;;;;11.30;9.80;;;17.20;99.90;;;;;;5046513;28;20471;-83
2021/07/03 01:00:17;;;;;;;12.57;10.67;;;17.10;99.90;;;;;;5044682;28;20742;-82
2021/07/03 01:02:46;;;;;;;13.30;9.67;;;17.10;99.90;;;;;;5045769;28;20490;-84
2021/07/03 01:05:14;;;;;;;17.23;10.83;;;17.10;99.90;;;;;;5046287;28;20508;-82
2021/07/03 01:07:41;;;;;;;10.90;9.77;;;17.10;99.90;;;;;;5046288;28;20491;-82
2021/07/03 01:10:19;;;;;;;15.17;11.17;;;17.10;99.90;;;;;;5045489;28;20463;-82
2021/07/03 01:12:47;;;;;;;14.13;11.43;;;17.10;99.90;;;;;;5044318;28;20486;-85
2021/07/03 01:15:15;;;;;;;11.97;9.53;;;17.10;99.90;;;;;;5046076;28;20456;-84
2021/07/03 01:17:43;;;;;;;15.30;11.10;;;17.00;99.90;;;;;;5047087;28;20461;-85
2021/07/03 01:20:14;;;;;;;13.27;9.47;;;17.00;99.90;;;;;;5046698;28;20999;-82
2021/07/03 01:22:44;;;;;;;15.17;10.50;;;16.90;99.90;;;;;;5045339;28;20528;-83
2021/07/03 01:25:11;;;;;;;16.30;9.67;;;16.90;99.90;;;;;;5047444;28;20575;-83
2021/07/03 01:27:39;;;;;;;12.23;9.80;;;16.90;99.90;;;;;;5044303;28;20503;-82
2021/07/03 01:30:09;;;;;;;11.60;9.57;;;16.80;99.90;;;;;;5044874;28;20448;-82
2021/07/03 01:32:36;;;;;;;16.27;10.30;;;16.80;99.90;;;;;;5044890;28;20464;-82
2021/07/03 01:35:04;;;;;;;14.50;10.00;;;16.80;99.90;;;;;;5047120;28;20502;-81
2021/07/03 01:37:30;;;;;;;13.53;10.27;;;16.80;99.90;;;;;;5046132;28;20458;-85
2021/07/03 01:39:59;;;;;;;16.43;10.17;;;16.80;99.90;;;;;;5045903;28;20542;-83
2021/07/03 01:42:26;;;;;;;12.77;10.73;;;16.80;99.90;;;;;;5042569;28;20465;-82
2021/07/03 01:44:53;;;;;;;18.80;11.37;;;16.70;99.90;;;;;;5046281;28;20518;-82
2021/07/03 01:47:21;;;;;;;12.93;11.53;;;16.70;99.90;;;;;;5047583;28;20468;-85
2021/07/03 01:49:47;;;;;;;16.57;11.83;;;16.70;99.90;;;;;;5045241;28;20485;-82
2021/07/03 01:52:17;;;;;;;17.43;11.10;;;16.70;99.90;;;;;;5043604;28;20461;-85
2021/07/03 01:54:45;;;;;;;14.57;11.03;;;16.70;99.90;;;;;;5043758;28;20452;-82
2021/07/03 01:57:13;;;;;;;14.87;10.53;;;16.70;99.90;;;;;;5048546;28;20487;-84
2021/07/03 01:59:40;;;;;;;15.67;10.37;;;16.70;99.90;;;;;;5046254;28;20833;-82
2021/07/03 02:02:07;;;;;;;11.60;9.87;;;16.70;99.90;;;;;;5044021;28;20491;-82
2021/07/03 02:04:34;;;;;;;15.27;9.67;;;16.60;99.90;;;;;;5046125;28;20568;-82
2021/07/03 02:07:01;;;;;;;10.03;8.77;;;16.70;99.90;;;;;;5045489;28;20465;-82
2021/07/03 02:09:28;;;;;;;12.07;9.47;;;16.60;99.90;;;;;;5045215;28;20492;-85
2021/07/03 02:11:55;;;;;;;12.33;9.33;;;16.60;99.90;;;;;;5044924;28;20459;-81
2021/07/03 02:14:24;;;;;;;13.70;9.20;;;16.60;99.90;;;;;;5045175;28;20500;-82
2021/07/03 02:16:50;;;;;;;13.87;9.23;;;16.60;99.90;;;;;;5042372;28;20475;-84
2021/07/03 02:19:19;;;;;;;14.50;10.37;;;16.50;99.90;;;;;;5043127;28;20549;-82
2021/07/03 02:21:46;;;;;;;10.67;9.07;;;16.50;99.90;;;;;;5045360;28;20472;-82
2021/07/03 02:24:13;;;;;;;12.77;10.47;;;16.50;99.90;;;;;;5044666;28;20505;-83
2021/07/03 02:26:40;;;;;;;16.53;10.80;;;16.50;99.90;;;;;;5044732;28;20483;-84
2021/07/03 02:29:08;;;;;;;11.67;9.90;;;16.50;99.90;;;;;;5045465;28;20489;-82
2021/07/03 02:31:36;;;;;;;13.30;9.60;;;16.50;99.90;;;;;;5045584;28;20460;-83
2021/07/03 02:34:03;;;;;;;13.20;8.90;;;16.50;99.90;;;;;;5042884;28;20486;-82
2021/07/03 02:36:30;;;;;;;12.93;8.70;;;16.50;99.90;;;;;;5044899;28;20474;-82
2021/07/03 02:38:57;;;;;;;19.80;9.40;;;16.40;99.90;;;;;;5045260;28;20468;-81
2021/07/03 02:41:24;;;;;;;13.43;9.80;;;16.40;99.90;;;;;;5047182;28;20816;-81
2021/07/03 02:43:51;;;;;;;11.00;9.40;;;16.40;99.90;;;;;;5050053;28;20460;-85
2021/07/03 02:46:18;;;;;;;22.33;11.20;;;16.40;99.90;;;;;;5049427;28;20551;-82
2021/07/03 02:48:46;;;;;;;17.63;11.80;;;16.40;99.90;;;;;;5049446;28;20855;-82
2021/07/03 02:51:13;;;;;;;17.93;8.77;;;16.40;99.90;;;;;;5045619;28;20998;-84
2021/07/03 02:53:40;;;;;;;12.97;9.60;;;16.40;99.90;;;;;;5049010;28;20910;-81
2021/07/03 02:56:07;;;;;;;13.17;9.40;;;16.40;99.90;;;;;;5050879;28;20461;-85
2021/07/03 02:58:34;;;;;;;17.80;9.50;;;16.40;99.90;;;;;;5049143;28;20459;-81
2021/07/03 03:01:01;;;;;;;24.73;9.10;;;16.40;99.90;;;;;;5048202;28;20486;-82
2021/07/03 03:03:27;;;;;;;14.50;8.97;;;16.40;99.90;;;;;;5046918;28;20487;-81
2021/07/03 03:05:56;;;;;;;18.53;9.60;;;16.30;99.90;;;;;;5046896;28;20479;-84
2021/07/03 03:08:23;;;;;;;18.60;9.17;;;16.30;99.90;;;;;;5049086;28;20491;-84
2021/07/03 03:10:50;;;;;;;16.30;10.23;;;16.30;99.90;;;;;;5049922;28;20464;-82
2021/07/03 03:13:17;;;;;;;14.60;9.20;;;16.30;99.90;;;;;;5048956;28;20551;-82
2021/07/03 03:15:44;;;;;;;13.40;8.43;;;16.30;99.90;;;;;;5050656;28;20453;-85
2021/07/03 03:18:11;;;;;;;13.23;8.60;;;16.30;99.90;;;;;;5051408;28;20975;-84
2021/07/03 03:20:38;;;;;;;14.20;9.70;;;16.20;99.90;;;;;;5048609;28;20461;-82
2021/07/03 03:23:06;;;;;;;12.13;9.20;;;16.20;99.90;;;;;;5048251;28;21050;-84
2021/07/03 03:25:33;;;;;;;13.97;9.30;;;16.20;99.90;;;;;;5049579;28;20485;-82
2021/07/03 03:28:00;;;;;;;15.73;9.20;;;16.20;99.90;;;;;;5047752;28;20491;-84
2021/07/03 03:30:28;;;;;;;15.03;9.27;;;16.20;99.90;;;;;;5046187;28;20539;-82
2021/07/03 03:32:55;;;;;;;11.73;9.37;;;16.10;99.90;;;;;;5048722;28;20467;-81
2021/07/03 03:35:22;;;;;;;24.17;12.10;;;16.10;99.90;;;;;;5048554;28;20468;-82
2021/07/03 03:37:49;;;;;;;18.77;12.33;;;16.10;99.90;;;;;;5047876;28;20463;-82
2021/07/03 03:40:17;;;;;;;21.03;12.57;;;16.10;99.90;;;;;;5046759;28;20977;-84
2021/07/03 03:42:44;;;;;;;15.63;11.83;;;16.10;99.90;;;;;;5045943;28;20551;-81
2021/07/03 03:45:12;;;;;;;21.23;12.13;;;16.10;99.90;;;;;;5044125;28;20565;-81
2021/07/03 03:47:39;;;;;;;20.07;13.50;;;16.10;99.90;;;;;;5048758;28;20456;-81
2021/07/03 03:50:07;;;;;;;21.97;14.03;;;16.10;99.90;;;;;;5049029;28;20489;-81
2021/07/03 03:52:34;;;;;;;20.53;14.80;;;16.10;99.90;;;;;;5045276;28;20490;-84
2021/07/03 03:55:01;;;;;;;22.53;15.73;;;16.10;99.90;;;;;;5046389;28;20474;-82
2021/07/03 03:57:30;;;;;;;21.73;17.43;;;16.10;99.90;;;;;;5045999;28;21046;-81
2021/07/03 03:59:58;;;;;;;21.63;16.00;;;16.10;99.90;;;;;;5048056;28;20464;-81
2021/07/03 04:02:25;;;;;;;21.53;16.10;;;16.20;99.90;;;;;;5046907;28;20526;-81
2021/07/03 04:04:53;;;;;;;22.10;16.93;;;16.20;99.90;;;;;;5048106;28;20835;-82
2021/07/03 04:07:20;;;;;;;19.23;15.23;;;16.20;99.90;;;;;;5042283;28;20539;-82
2021/07/03 04:09:47;;;;;;;29.23;16.03;;;16.20;99.90;;;;;;5047456;28;20491;-83
2021/07/03 04:12:15;;;;;;;22.90;16.40;;;16.20;99.90;;;;;;5046123;28;20456;-81
2021/07/03 04:14:43;;;;;;;21.47;15.10;;;16.20;99.90;;;;;;5042203;28;20914;-84
2021/07/03 04:17:11;;;;;;;28.57;16.30;;;16.20;99.90;;;;;;5044643;28;20466;-81
2021/07/03 04:19:38;;;;;;;26.20;16.83;;;16.30;99.90;;;;;;5045160;28;20555;-81
2021/07/03 04:22:05;;;;;;;19.33;16.03;;;16.30;99.90;;;;;;5047213;28;21200;-83
2021/07/03 04:24:32;;;;;;;23.47;16.20;;;16.30;99.90;;;;;;5045209;28;20464;-81
2021/07/03 04:26:59;;;;;;;20.80;16.70;;;16.30;99.90;;;;;;5044473;28;20468;-81
2021/07/03 04:29:26;;;;;;;20.17;15.43;;;16.40;99.90;;;;;;5044295;28;20491;-81
2021/07/03 04:31:54;;;;;;;22.07;15.53;;;16.40;99.90;;;;;;5043843;28;20518;-81
2021/07/03 04:34:21;;;;;;;19.43;16.63;;;16.40;99.90;;;;;;5044968;28;21083;-81
2021/07/03 04:36:49;;;;;;;21.10;15.80;;;16.40;99.90;;;;;;5045963;28;20461;-81
2021/07/03 04:39:16;;;;;;;22.30;15.80;;;16.50;99.90;;;;;;5047065;28;20468;-81
2021/07/03 04:41:44;;;;;;;29.33;17.23;;;16.50;99.90;;;;;;5047859;28;20463;-81
2021/07/03 04:44:13;;;;;;;25.27;16.47;;;16.50;99.90;;;;;;5044447;28;20554;-81
2021/07/03 04:46:40;;;;;;;23.17;17.03;;;16.60;99.90;;;;;;5047666;28;20467;-82
2021/07/03 04:49:08;;;;;;;30.47;18.30;;;16.70;99.90;;;;;;5046737;28;20487;-83
2021/07/03 04:51:36;;;;;;;27.83;18.60;;;16.80;99.90;;;;;;5046794;28;20472;-82
2021/07/03 04:54:03;;;;;;;24.97;18.70;;;16.80;99.90;;;;;;5045951;28;20989;-82
2021/07/03 04:56:30;;;;;;;29.33;18.73;;;16.90;99.90;;;;;;5042729;28;21006;-81
2021/07/03 04:58:57;;;;;;;31.83;18.97;;;16.90;99.90;;;;;;5040791;28;20471;-82
2021/07/03 05:01:25;;;;;;;24.00;18.63;;;17.00;99.90;;;;;;5044794;28;20533;-83
2021/07/03 05:03:52;;;;;;;25.40;18.13;;;17.00;99.90;;;;;;5042596;28;20853;-83
2021/07/03 05:06:21;;;;;;;26.10;18.57;;;17.10;99.90;;;;;;5042141;28;20464;-82
2021/07/03 05:08:47;;;;;;;24.63;18.07;;;17.10;99.90;;;;;;5042332;28;20937;-84
2021/07/03 05:11:14;;;;;;;26.80;18.10;;;17.20;99.90;;;;;;5045241;28;20461;-84
2021/07/03 05:13:41;;;;;;;22.57;18.27;;;17.20;99.90;;;;;;5044660;28;20480;-82
2021/07/03 05:16:08;;;;;;;23.37;17.43;;;17.20;99.90;;;;;;5046433;28;20969;-82
2021/07/03 05:18:35;;;;;;;26.93;19.30;;;17.30;99.90;;;;;;5046774;28;20472;-83
2021/07/03 05:21:02;;;;;;;22.10;15.10;;;17.30;99.90;;;;;;5046379;28;20590;-83
2021/07/03 05:23:32;;;;;;;24.10;16.03;;;17.40;99.90;;;;;;5044436;28;20468;-83
2021/07/03 05:25:59;;;;;;;33.13;17.53;;;17.40;99.90;;;;;;5044521;28;20486;-83
2021/07/03 05:28:26;;;;;;;21.30;17.10;;;17.50;99.90;;;;;;5043286;28;20498;-83
2021/07/03 05:30:53;;;;;;;22.27;16.20;;;17.50;99.90;;;;;;5042313;28;20489;-81
2021/07/03 05:33:21;;;;;;;23.40;17.20;;;17.60;99.90;;;;;;5043009;28;20465;-85
2021/07/03 05:35:47;;;;;;;24.70;17.87;;;17.60;99.90;;;;;;5040848;28;20471;-84
2021/07/03 05:38:15;;;;;;;18.40;15.27;;;17.70;99.90;;;;;;5043740;28;20472;-83
2021/07/03 05:40:43;;;;;;;18.40;15.70;;;17.70;99.90;;;;;;5045124;28;20503;-83
2021/07/03 05:43:10;;;;;;;24.47;15.70;;;17.80;99.90;;;;;;5046807;28;20548;-82
2021/07/03 05:45:37;;;;;;;22.10;16.80;;;17.90;99.90;;;;;;5045904;28;20466;-82
2021/07/03 05:48:05;;;;;;;22.20;15.67;;;17.90;99.90;;;;;;5044261;28;20470;-82
2021/07/03 05:50:32;;;;;;;23.20;15.50;;;18.00;99.90;;;;;;5045759;28;20505;-82
2021/07/03 05:52:59;;;;;;;20.90;14.87;;;18.00;99.90;;;;;;5045716;28;20467;-83
2021/07/03 05:55:26;;;;;;;21.77;15.60;;;18.10;99.90;;;;;;5046576;28;20557;-82
2021/07/03 05:57:55;;;;;;;19.70;15.37;;;18.20;99.90;;;;;;5046123;28;20466;-83
2021/07/03 06:00:22;;;;;;;21.73;16.97;;;18.20;99.90;;;;;;5045091;28;20474;-82
2021/07/03 06:02:49;;;;;;;21.27;14.70;;;18.20;99.90;;;;;;5042600;28;20491;-83
2021/07/03 06:05:16;;;;;;;18.90;14.10;;;18.30;99.90;;;;;;5045443;28;20477;-82
2021/07/03 06:07:44;;;;;;;19.60;14.50;;;18.30;99.90;;;;;;5041757;28;20474;-82
2021/07/03 06:10:12;;;;;;;16.80;12.80;;;18.40;99.90;;;;;;5046305;28;20938;-85
2021/07/03 06:12:40;;;;;;;16.43;12.83;;;18.50;99.90;;;;;;5045033;28;20459;-85
2021/07/03 06:15:11;;;;;;;17.07;13.10;;;18.50;99.90;;;;;;5045819;28;20468;-83
2021/07/03 06:17:38;;;;;;;15.97;13.23;;;18.60;99.90;;;;;;5040004;28;20561;-82
2021/07/03 06:20:07;;;;;;;15.83;12.60;;;18.60;99.90;;;;;;5046652;28;20463;-82
2021/07/03 06:22:34;;;;;;;21.53;13.17;;;18.70;99.90;;;;;;5050302;28;20456;-82
2021/07/03 06:25:01;;;;;;;23.40;14.80;;;18.80;99.90;;;;;;5049875;28;20496;-85
2021/07/03 06:27:28;;;;;;;22.03;13.93;;;18.80;99.90;;;;;;5047839;28;20516;-83
2021/07/03 06:29:54;;;;;;;19.17;11.10;;;18.90;99.90;;;;;;5044132;28;21006;-86
2021/07/03 06:32:23;;;;;;;16.53;12.63;;;19.00;99.90;;;;;;5047895;28;20502;-83
2021/07/03 06:34:50;;;;;;;20.97;12.20;;;19.00;99.90;;;;;;5046082;28;20459;-84
2021/07/03 06:37:17;;;;;;;15.10;11.60;;;19.10;99.90;;;;;;5041253;28;20550;-83
2021/07/03 06:39:44;;;;;;;18.00;12.83;;;19.10;99.90;;;;;;5042070;28;20466;-82
2021/07/03 06:42:11;;;;;;;20.10;13.20;;;19.20;99.90;;;;;;5041959;28;20461;-82
2021/07/03 06:44:38;;;;;;;22.50;11.50;;;19.30;99.90;;;;;;5042702;28;20455;-83
2021/07/03 06:47:06;;;;;;;25.43;12.23;;;19.40;99.90;;;;;;5044861;28;20829;-82
2021/07/03 06:49:34;;;;;;;16.63;11.60;;;19.50;99.90;;;;;;5042854;28;20467;-82
2021/07/03 06:52:01;;;;;;;13.77;11.90;;;19.50;99.90;;;;;;5038644;28;20463;-83
2021/07/03 06:54:28;;;;;;;16.60;12.17;;;19.60;99.90;;;;;;5038930;28;20550;-84
2021/07/03 06:56:58;;;;;;;17.77;12.83;;;19.60;99.90;;;;;;5041161;28;20480;-86
2021/07/03 06:59:25;;;;;;;34.73;14.43;;;19.70;99.90;;;;;;5047848;28;20566;-83
2021/07/03 07:01:52;;;;;;;13.80;10.57;;;19.80;99.90;;;;;;5046319;28;20689;-83
2021/07/03 07:04:20;;;;;;;14.07;10.90;;;19.90;99.90;;;;;;5046389;28;20460;-84
2021/07/03 07:06:49;;;;;;;14.67;10.77;;;20.00;99.90;;;;;;5048451;28;20456;-82
2021/07/03 07:09:16;;;;;;;18.60;11.00;;;20.10;99.90;;;;;;5044110;28;20463;-83
2021/07/03 07:11:44;;;;;;;25.30;11.57;;;20.20;99.90;;;;;;5049595;28;20463;-83
2021/07/03 07:14:10;;;;;;;21.53;11.40;;;20.20;99.90;;;;;;5047826;28;20464;-82
2021/07/03 07:16:38;;;;;;;17.13;11.90;;;20.30;99.90;;;;;;5043018;28;20459;-72
2021/07/03 07:19:05;;;;;;;13.27;10.37;;;20.40;99.90;;;;;;5043946;28;20480;-73
2021/07/03 07:21:33;;;;;;;16.90;11.50;;;20.50;99.90;;;;;;5048277;28;20460;-73
2021/07/03 07:24:02;;;;;;;16.73;10.43;;;20.50;99.90;;;;;;5047764;28;20467;-72
2021/07/03 07:26:29;;;;;;;14.90;10.10;;;20.60;99.90;;;;;;5048945;28;20922;-73
2021/07/03 07:28:56;;;;;;;16.50;9.87;;;20.70;99.90;;;;;;5049222;28;20451;-72
2021/07/03 07:31:23;;;;;;;13.33;10.23;;;20.80;99.90;;;;;;5047375;28;20487;-72
2021/07/03 07:33:50;;;;;;;12.77;9.67;;;20.80;99.90;;;;;;5047586;28;20458;-73
2021/07/03 07:36:17;;;;;;;9.47;8.43;;;21.00;99.90;;;;;;5047409;28;20835;-73
2021/07/03 07:38:44;;;;;;;19.33;10.07;;;21.00;99.90;;;;;;5048035;28;20990;-72
2021/07/03 07:41:15;;;;;;;11.30;9.00;;;21.10;99.90;;;;;;5048876;28;20463;-73
2021/07/03 07:43:42;;;;;;;12.43;7.80;;;21.20;99.90;;;;;;5049675;28;20463;-73
2021/07/03 07:46:09;;;;;;;13.90;9.93;;;21.20;99.90;;;;;;5047985;28;20470;-73
2021/07/03 07:48:37;;;;;;;15.73;8.50;;;21.30;99.90;;;;;;5044502;28;20459;-73
2021/07/03 07:51:04;;;;;;;11.70;8.60;;;21.40;99.90;;;;;;5046349;28;20862;-72
2021/07/03 07:53:31;;;;;;;14.07;8.93;;;21.50;99.90;;;;;;5045860;28;20509;-72
2021/07/03 07:55:59;;;;;;;13.63;9.00;;;21.60;99.90;;;;;;5052267;28;20456;-73
2021/07/03 07:58:27;;;;;;;13.83;8.40;;;21.70;99.90;;;;;;5047802;28;20466;-73
2021/07/03 08:00:54;;;;;;;18.13;9.10;;;21.80;99.90;;;;;;5047503;28;20495;-73
2021/07/03 08:03:21;;;;;;;17.03;9.97;;;21.90;99.90;;;;;;5046720;28;20562;-73
2021/07/03 08:05:48;;;;;;;11.00;8.37;;;22.00;99.90;;;;;;5046736;28;20491;-73
2021/07/03 08:08:15;;;;;;;14.67;11.40;;;22.10;99.90;;;;;;5044367;28;20470;-73
2021/07/03 08:10:43;;;;;;;12.20;9.60;;;22.10;99.90;;;;;;5045687;28;20484;-72
2021/07/03 08:13:11;;;;;;;19.70;11.47;;;22.20;99.90;;;;;;5046305;28;20459;-73
2021/07/03 08:15:40;;;;;;;15.17;10.70;;;22.30;99.90;;;;;;5046034;28;20466;-85
2021/07/03 08:18:07;;;;;;;13.27;10.33;;;22.40;99.90;;;;;;5042217;28;20472;-83
2021/07/03 08:20:35;;;;;;;14.30;10.47;;;22.50;99.90;;;;;;5034138;28;21071;-85
2021/07/03 08:23:02;;;;;;;16.37;9.83;;;22.60;99.90;;;;;;5034762;28;20473;-82
2021/07/03 08:25:29;;;;;;;11.63;8.97;;;22.70;99.90;;;;;;5040342;28;20481;-82
2021/07/03 08:27:57;;;;;;;19.73;10.23;;;22.80;99.90;;;;;;5045155;28;20542;-85
2021/07/03 08:30:24;;;;;;;20.20;11.97;;;22.90;99.90;;;;;;5045371;28;20478;-82
2021/07/03 08:32:53;;;;;;;10.47;8.70;;;23.00;99.90;;;;;;5045986;28;20799;-83
2021/07/03 08:35:20;;;;;;;14.13;9.60;;;23.10;99.90;;;;;;5045951;28;21188;-84
2021/07/03 08:37:47;;;;;;;13.67;10.10;;;23.20;99.90;;;;;;5045262;28;20555;-82
2021/07/03 08:40:16;;;;;;;14.10;8.23;;;23.30;99.90;;;;;;5041405;28;20542;-82
2021/07/03 08:42:44;;;;;;;11.03;9.40;;;23.40;99.90;;;;;;5042252;28;21196;-82
2021/07/03 08:45:13;;;;;;;12.60;8.40;;;23.60;99.90;;;;;;5039116;28;20466;-82
2021/07/03 08:47:41;;;;;;;13.37;9.87;;;23.60;99.90;;;;;;5035707;28;20455;-82
2021/07/03 08:50:11;;;;;;;11.03;8.80;;;23.70;99.90;;;;;;5038432;28;20491;-82
2021/07/03 08:52:38;;;;;;;13.30;7.60;;;23.80;99.90;;;;;;5038399;28;20472;-84
2021/07/03 08:55:11;;;;;;;9.17;8.23;;;24.00;99.90;;;;;;5039419;28;20463;-84
2021/07/03 08:57:44;;;;;;;12.03;6.87;;;24.00;99.90;;;;;;5040394;28;20460;-83
2021/07/03 09:00:13;;;;;;;8.60;7.70;;;24.10;99.90;;;;;;5033851;28;20547;-83
2021/07/03 09:02:43;;;;;;;8.80;7.80;;;24.20;99.90;;;;;;4513254;28;15072304;-83
2021/07/03 09:05:26;;;;;;;11.23;7.53;;;24.30;99.90;;;;;;5038909;28;20786;-82
2021/07/03 09:07:59;;;;;;;8.27;7.30;;;24.40;99.90;;;;;;5042299;28;20526;-83
2021/07/03 09:10:26;;;;;;;8.60;7.17;;;24.50;99.90;;;;;;5041512;28;20568;-82
2021/07/03 09:12:55;;;;;;;10.13;7.50;;;24.50;99.90;;;;;;5040891;28;20459;-83
2021/07/03 09:15:24;;;;;;;12.20;8.00;;;24.60;99.90;;;;;;5036841;28;20467;-84
2021/07/03 09:17:54;;;;;;;11.00;7.60;;;24.70;99.90;;;;;;5039244;28;20554;-82
2021/07/03 09:20:28;;;;;;;7.60;6.90;;;24.80;99.90;;;;;;5041682;28;20486;-82
2021/07/03 09:23:08;;;;;;;8.93;6.97;;;24.90;99.90;;;;;;5042688;28;20470;-84
2021/07/03 09:25:36;;;;;;;10.20;6.63;;;24.90;99.90;;;;;;5040385;28;20492;-83
2021/07/03 09:28:12;;;;;;;9.83;7.70;;;25.00;99.90;;;;;;5041614;28;20463;-82
2021/07/03 09:30:40;;;;;;;9.53;6.23;;;25.10;99.90;;;;;;5040654;28;20491;-82
2021/07/03 09:33:07;;;;;;;9.90;7.30;;;25.20;99.90;;;;;;5041174;28;21005;-84
2021/07/03 09:35:36;;;;;;;8.30;6.70;;;25.20;99.90;;;;;;5042792;28;20550;-82
2021/07/03 09:38:08;;;;;;;12.57;6.67;;;25.30;99.90;;;;;;5042518;28;20471;-84
2021/07/03 09:40:36;;;;;;;7.20;6.20;;;25.40;99.90;;;;;;5039501;28;20464;-83
2021/07/03 09:43:11;;;;;;;7.20;6.10;;;25.50;99.90;;;;;;5039584;28;20479;-82
2021/07/03 09:45:40;;;;;;;9.80;6.30;;;25.60;99.90;;;;;;5040115;28;21052;-84
2021/07/03 09:48:09;;;;;;;6.90;6.20;;;25.60;99.90;;;;;;5041387;28;21489;-82
2021/07/03 09:50:39;;;;;;;6.30;5.80;;;25.70;99.90;;;;;;5040344;28;20871;-82
2021/07/03 09:53:06;;;;;;;5.70;5.20;;;25.80;99.90;;;;;;5039138;28;20455;-82
2021/07/03 09:55:35;;;;;;;5.40;4.87;;;25.90;99.90;;;;;;5042948;28;20462;-83
2021/07/03 09:58:03;;;;;;;6.80;4.50;;;26.00;99.90;;;;;;5043739;28;20551;-86
2021/07/03 10:00:30;;;;;;;5.03;4.00;;;26.10;99.90;;;;;;5040179;28;20861;-83
2021/07/03 10:02:59;;;;;;;6.07;4.37;;;26.10;99.90;;;;;;5038181;28;20594;-82
2021/07/03 10:05:27;;;;;;;5.63;4.80;;;26.20;99.90;;;;;;5037038;28;20463;-85
2021/07/03 10:08:03;;;;;;;6.37;4.83;;;26.30;99.90;;;;;;5042610;28;20456;-83
2021/07/03 10:10:32;;;;;;;4.60;4.20;;;26.40;99.90;;;;;;5039419;28;20495;-85
2021/07/03 10:13:03;;;;;;;5.03;4.53;;;26.40;99.90;;;;;;5039301;28;20464;-83
2021/07/03 10:15:32;;;;;;;5.40;4.07;;;26.60;99.90;;;;;;5039105;28;20459;-82
2021/07/03 10:18:14;;;;;;;4.90;4.50;;;26.70;99.90;;;;;;5039414;28;20459;-83
2021/07/03 10:20:42;;;;;;;5.33;4.70;;;26.70;99.90;;;;;;5035498;28;20773;-82
2021/07/03 10:23:13;;;;;;;5.03;4.20;;;26.70;99.90;;;;;;5037872;28;20466;-85
2021/07/03 10:25:42;;;;;;;4.67;4.17;;;26.70;99.90;;;;;;5041125;28;20487;-85
2021/07/03 10:28:10;;;;;;;4.90;4.47;;;26.70;99.90;;;;;;5039928;28;20544;-86
2021/07/03 10:30:40;;;;;;;4.73;4.23;;;26.70;99.90;;;;;;5033071;28;20483;-83
2021/07/03 10:33:13;;;;;;;4.17;3.87;;;26.70;99.90;;;;;;5031455;28;20460;-82
2021/07/03 10:35:45;;;;;;;4.63;4.23;;;26.70;99.90;;;;;;5028006;28;20486;-82
2021/07/03 10:38:22;;;;;;;3.90;3.50;;;26.70;99.90;;;;;;5032016;28;20472;-84
2021/07/03 10:40:51;;;;;;;4.13;3.73;;;26.70;99.90;;;;;;5038212;28;21084;-82
2021/07/03 10:43:19;;;;;;;3.80;3.43;;;26.70;99.90;;;;;;5059643;23;20515;-83
2021/07/03 10:45:48;;;;;;;5.30;3.77;;;26.70;99.90;;;;;;5056316;28;20896;-84
2021/07/03 10:48:16;;;;;;;4.17;3.77;;;26.70;99.90;;;;;;5058123;28;20871;-82
2021/07/03 10:50:43;;;;;;;5.40;3.90;;;26.80;99.90;;;;;;5056931;28;20516;-82
2021/07/03 10:53:22;;;;;;;4.20;3.43;;;26.80;99.90;;;;;;5060009;28;20910;-82
2021/07/03 10:55:49;;;;;;;5.90;3.27;;;26.90;99.90;;;;;;5060182;28;20465;-82
2021/07/03 10:58:18;;;;;;;5.23;3.90;;;26.90;99.90;;;;;;5059791;28;21002;-85
2021/07/03 11:00:47;;;;;;;4.10;3.70;;;27.00;99.90;;;;;;5057685;28;20545;-82
2021/07/03 11:03:15;;;;;;;4.00;3.70;;;27.00;99.90;;;;;;5060580;28;20490;-82
2021/07/03 11:05:42;;;;;;;4.03;3.73;;;27.00;99.90;;;;;;5063406;28;20554;-82
2021/07/03 11:08:11;;;;;;;4.00;3.27;;;27.00;99.90;;;;;;5063299;28;20470;-82
2021/07/03 11:10:41;;;;;;;4.13;3.83;;;27.00;99.90;;;;;;5066571;28;20836;-84
2021/07/03 11:13:21;;;;;;;3.70;3.40;;;27.10;99.90;;;;;;5064236;28;20461;-83
2021/07/03 11:15:48;;;;;;;4.80;3.70;;;27.20;99.90;;;;;;5064582;28;20458;-83
2021/07/03 11:18:15;;;;;;;3.80;3.50;;;27.10;99.90;;;;;;5063864;28;20477;-83
2021/07/03 11:20:44;;;;;;;4.50;4.10;;;27.10;99.90;;;;;;5068454;28;20940;-82
2021/07/03 11:23:13;;;;;;;4.50;4.10;;;27.00;99.90;;;;;;5063645;28;20468;-84
2021/07/03 11:25:44;;;;;;;4.23;3.93;;;27.00;99.90;;;;;;5067635;28;20466;-82
2021/07/03 11:28:12;;;;;;;7.07;4.00;;;27.10;99.90;;;;;;5065073;28;20469;-84
2021/07/03 11:30:42;;;;;;;4.70;4.17;;;27.30;99.90;;;;;;5067618;28;20534;-85
2021/07/03 11:33:10;;;;;;;4.33;3.90;;;27.40;99.90;;;;;;5064064;28;20491;-83
2021/07/03 11:35:42;;;;;;;4.70;4.30;;;27.70;99.90;;;;;;5064097;28;20553;-82
2021/07/03 11:38:09;;;;;;;3.90;3.60;;;27.80;99.90;;;;;;5069592;28;20459;-84
2021/07/03 11:40:36;;;;;;;4.50;4.10;;;27.70;99.90;;;;;;5065276;28;20558;-82
2021/07/03 11:43:05;;;;;;;4.37;4.03;;;27.60;99.90;;;;;;5064006;28;20458;-85
2021/07/03 11:45:35;;;;;;;4.73;4.33;;;27.60;99.90;;;;;;5087778;28;20489;-82
2021/07/03 11:48:08;;;;;;;5.03;4.63;;;27.60;99.90;;;;;;5084334;28;20821;-82
2021/07/03 11:50:37;;;;;;;4.90;4.50;;;27.60;99.90;;;;;;5083560;28;20803;-83
2021/07/03 11:53:07;;;;;;;4.90;3.90;;;27.60;99.90;;;;;;5084898;28;20468;-83
2021/07/03 11:55:36;;;;;;;5.17;4.00;;;27.60;99.90;;;;;;5082127;28;20518;-84
2021/07/03 11:58:05;;;;;;;5.47;4.17;;;27.50;99.90;;;;;;5084997;28;20462;-82
2021/07/03 12:00:34;;;;;;;5.53;4.17;;;27.50;99.90;;;;;;5087361;28;20697;-84
2021/07/03 12:03:02;;;;;;;8.80;5.20;;;27.60;99.90;;;;;;5083985;28;20553;-82
2021/07/03 12:05:30;;;;;;;5.87;5.27;;;27.60;99.90;;;;;;5087952;28;20568;-82
2021/07/03 12:08:03;;;;;;;4.30;3.90;;;27.60;99.90;;;;;;5089796;28;20544;-83
2021/07/03 12:10:35;;;;;;;5.10;4.60;;;27.60;99.90;;;;;;5084414;28;20557;-82
2021/07/03 12:13:04;;;;;;;5.53;5.03;;;27.70;99.90;;;;;;5089609;28;20932;-83
2021/07/03 12:15:31;;;;;;;5.30;4.50;;;27.70;99.90;;;;;;5094735;28;20974;-83
2021/07/03 12:17:59;;;;;;;10.10;4.87;;;27.70;99.90;;;;;;5092323;28;20472;-83
2021/07/03 12:20:26;;;;;;;6.43;4.97;;;27.70;99.90;;;;;;5086499;28;20550;-85
2021/07/03 12:22:59;;;;;;;5.33;4.33;;;27.60;99.90;;;;;;5089643;28;20458;-84
2021/07/03 12:25:27;;;;;;;6.53;5.50;;;27.50;99.90;;;;;;5090255;28;20490;-87
2021/07/03 12:27:56;;;;;;;5.80;5.17;;;27.50;99.90;;;;;;5091816;28;20528;-83
2021/07/03 12:30:24;;;;;;;5.00;4.50;;;27.40;99.90;;;;;;5086685;28;20555;-87
2021/07/03 12:33:07;;;;;;;6.90;4.60;;;27.30;99.90;;;;;;5081837;28;20485;-85
2021/07/03 12:35:40;;;;;;;4.80;4.30;;;27.30;99.90;;;;;;5081416;28;20465;-83
2021/07/03 12:38:08;;;;;;;11.27;5.60;;;27.30;99.90;;;;;;5085613;28;20466;-83
2021/07/03 12:40:38;;;;;;;6.40;5.23;;;27.30;99.90;;;;;;5086330;28;20461;-87